Time;durP1;ratioP1;P1;durP2;ratioP2;P2;SDS_P1;SDS_P2;PMS_P1;PMS_P2;Temp;Humidity;BMP_temperature;BMP_pressure;BME280_temperature;BME280_humidity;BME280_pressure;Samples;Min_cycle;Max_cycle;Signal;HPM_P1;HPM_P2
2022/04/18 00:00:03;;;;;;;3.33;2.80;;;;;;;7.33;55.36;98464.53;5014119;28;20238;-71
2022/04/18 00:02:30;;;;;;;3.77;2.10;;;;;;;7.43;54.87;98454.44;5014191;28;20226;-71
2022/04/18 00:04:56;;;;;;;4.13;2.33;;;;;;;7.16;55.47;98444.63;5014339;28;20210;-71
2022/04/18 00:07:22;;;;;;;3.77;2.30;;;;;;;6.87;56.21;98444.72;5014205;28;20223;-71
2022/04/18 00:09:49;;;;;;;2.40;2.17;;;;;;;6.57;57.69;98446.59;5014224;28;20202;-71
2022/04/18 00:12:15;;;;;;;2.87;2.53;;;;;;;6.53;56.92;98447.97;5014176;28;20203;-71
2022/04/18 00:14:41;;;;;;;3.17;2.00;;;;;;;6.45;57.81;98436.66;5013843;28;20216;-71
2022/04/18 00:17:09;;;;;;;2.63;2.10;;;;;;;6.46;57.79;98440.94;5013712;28;20226;-71
2022/04/18 00:19:39;;;;;;;2.60;2.40;;;;;;;6.44;57.89;98437.66;5013981;28;20206;-71
2022/04/18 00:22:06;;;;;;;4.07;2.10;;;;;;;6.53;58.45;98436.56;5013978;28;20225;-71
2022/04/18 00:24:33;;;;;;;3.70;2.30;;;;;;;6.50;58.69;98434.28;5014053;28;20206;-71
2022/04/18 00:27:00;;;;;;;2.60;2.40;;;;;;;6.54;59.49;98431.09;5013462;28;20736;-71
2022/04/18 00:29:27;;;;;;;3.17;2.50;;;;;;;6.52;59.20;98432.28;5013650;28;20206;-71
2022/04/18 00:31:54;;;;;;;4.30;2.43;;;;;;;6.47;59.12;98435.47;5013929;28;20215;-71
2022/04/18 00:34:20;;;;;;;4.20;2.80;;;;;;;6.41;58.76;98436.22;5013841;28;20202;-71
2022/04/18 00:36:46;;;;;;;3.13;2.40;;;;;;;6.43;59.61;98436.03;5013734;28;20230;-71
2022/04/18 00:39:13;;;;;;;3.47;2.30;;;;;;;6.34;60.34;98439.78;5014042;28;20206;-71
2022/04/18 00:41:39;;;;;;;5.10;2.83;;;;;;;6.26;59.68;98435.41;5013681;28;20206;-71
2022/04/18 00:44:06;;;;;;;5.20;2.60;;;;;;;6.22;60.47;98435.94;5013455;28;20199;-71
2022/04/18 00:46:32;;;;;;;2.57;2.23;;;;;;;6.15;60.81;98427.94;5013884;28;20206;-72
2022/04/18 00:48:58;;;;;;;2.87;2.40;;;;;;;6.12;61.08;98427.47;5013659;28;20213;-71
2022/04/18 00:51:27;;;;;;;3.90;2.70;;;;;;;5.91;61.58;98430.00;5013689;28;20217;-71
2022/04/18 00:53:55;;;;;;;3.20;2.27;;;;;;;5.88;62.49;98423.25;5013765;28;20215;-71
2022/04/18 00:56:22;;;;;;;3.63;2.40;;;;;;;5.87;62.29;98413.72;5013907;28;20206;-71
2022/04/18 00:58:50;;;;;;;3.37;2.63;;;;;;;5.99;63.18;98416.72;5013264;28;20681;-71
2022/04/18 01:01:19;;;;;;;3.07;2.53;;;;;;;6.01;63.17;98420.03;5013605;28;20214;-71
2022/04/18 01:03:45;;;;;;;2.60;2.40;;;;;;;5.91;62.04;98412.34;5013386;28;20222;-71
2022/04/18 01:06:15;;;;;;;4.13;2.70;;;;;;;5.91;61.42;98406.25;5013558;28;20206;-71
2022/04/18 01:08:43;;;;;;;3.80;2.57;;;;;;;5.91;61.13;98408.88;5013487;28;20234;-71
2022/04/18 01:11:10;;;;;;;2.50;2.30;;;;;;;5.95;60.63;98407.53;5013526;28;20208;-71
2022/04/18 01:13:47;;;;;;;4.23;2.27;;;;;;;5.96;60.19;98415.28;5013441;28;20269;-71
2022/04/18 01:16:14;;;;;;;3.23;2.43;;;;;;;5.90;61.36;98413.38;5013466;28;20210;-71
2022/04/18 01:18:41;;;;;;;3.13;2.30;;;;;;;5.82;61.84;98410.81;5013344;28;20226;-71
2022/04/18 01:21:08;;;;;;;4.30;2.57;;;;;;;5.77;61.94;98404.38;5013427;28;20207;-71
2022/04/18 01:23:35;;;;;;;4.00;2.20;;;;;;;5.80;61.51;98406.69;5013309;28;20222;-71
2022/04/18 01:29:01;;;;;;;4.83;2.57;;;;;;;5.67;63.14;98396.75;5012900;28;20244;-70
2022/04/18 01:31:33;;;;;;;3.17;2.23;;;;;;;5.59;62.53;98396.00;5013331;28;20242;-71
2022/04/18 01:34:01;;;;;;;2.50;2.13;;;;;;;5.39;63.91;98394.88;5013301;28;20214;-71
2022/04/18 01:36:28;;;;;;;2.50;2.17;;;;;;;5.25;63.94;98395.66;5013078;28;20301;-71
2022/04/18 01:38:55;;;;;;;5.43;2.60;;;;;;;5.12;64.13;98387.53;5013250;28;20559;-71
2022/04/18 01:41:22;;;;;;;4.60;2.20;;;;;;;5.11;65.07;98385.88;5013848;28;20229;-71
2022/04/18 01:43:48;;;;;;;2.13;1.93;;;;;;;5.02;64.53;98373.75;5016596;28;20235;-70
2022/04/18 01:46:16;;;;;;;3.80;2.27;;;;;;;5.18;64.36;98381.53;5016519;28;20678;-71
2022/04/18 01:48:42;;;;;;;3.27;2.63;;;;;;;5.14;64.29;98378.44;5016700;28;20288;-70
2022/04/18 01:51:09;;;;;;;4.00;2.63;;;;;;;5.05;65.67;98382.13;5016511;28;20218;-71
2022/04/18 01:53:35;;;;;;;4.67;2.37;;;;;;;4.99;65.43;98379.38;5016788;28;20233;-71
2022/04/18 01:56:03;;;;;;;4.57;2.40;;;;;;;4.99;64.80;98376.75;5016719;28;20211;-71
2022/04/18 01:58:29;;;;;;;2.87;2.03;;;;;;;4.96;65.29;98371.81;5016498;28;20246;-71
2022/04/18 02:00:56;;;;;;;3.13;2.43;;;;;;;4.88;64.88;98385.88;5016620;28;20213;-71
2022/04/18 02:03:23;;;;;;;4.67;2.17;;;;;;;4.94;65.24;98381.72;5016538;28;20222;-71
2022/04/18 02:05:52;;;;;;;2.80;2.43;;;;;;;4.99;65.01;98380.22;5016192;28;20269;-71
2022/04/18 02:08:18;;;;;;;3.70;2.23;;;;;;;4.87;65.76;98378.97;5016304;28;20313;-71
2022/04/18 02:10:45;;;;;;;3.40;2.10;;;;;;;4.98;64.23;98367.22;5016418;28;20221;-71
2022/04/18 02:13:11;;;;;;;4.50;2.30;;;;;;;4.98;64.48;98369.84;5016006;28;20682;-71
2022/04/18 02:15:38;;;;;;;3.97;2.27;;;;;;;4.93;64.85;98367.72;5016001;28;20731;-71
2022/04/18 02:18:04;;;;;;;2.37;2.00;;;;;;;5.01;64.64;98364.19;5015866;28;20601;-71
2022/04/18 02:20:31;;;;;;;4.23;2.33;;;;;;;4.93;65.09;98362.44;5016257;28;20566;-71
2022/04/18 02:22:57;;;;;;;3.83;2.37;;;;;;;4.96;65.19;98366.53;5016157;28;20226;-71
2022/04/18 02:25:24;;;;;;;3.87;2.47;;;;;;;5.06;64.78;98361.88;5016129;28;20211;-71
2022/04/18 02:27:51;;;;;;;2.90;1.90;;;;;;;4.94;65.84;98360.66;5015578;28;20241;-71
2022/04/18 02:30:18;;;;;;;3.80;2.47;;;;;;;4.81;65.24;98360.41;5016072;28;20277;-71
2022/04/18 02:32:51;;;;;;;4.93;2.10;;;;;;;4.72;65.90;98359.66;5016018;28;20207;-71
2022/04/18 02:35:20;;;;;;;3.13;2.40;;;;;;;4.65;66.11;98363.16;5015976;28;20631;-70
2022/04/18 02:37:46;;;;;;;3.40;2.37;;;;;;;4.59;66.64;98359.41;5015826;28;20237;-70
2022/04/18 02:40:13;;;;;;;2.63;2.20;;;;;;;4.48;67.57;98354.50;5015901;28;20207;-71
2022/04/18 02:42:42;;;;;;;3.00;2.10;;;;;;;4.43;67.71;98353.41;5015741;28;20233;-70
2022/04/18 02:45:09;;;;;;;2.97;2.40;;;;;;;4.47;67.10;98349.44;5015674;28;20310;-71
2022/04/18 02:47:35;;;;;;;3.47;2.60;;;;;;;4.53;67.06;98343.47;5015595;28;20801;-70
2022/04/18 02:50:02;;;;;;;3.80;2.37;;;;;;;4.40;66.70;98351.13;5015637;28;20232;-71
2022/04/18 02:52:28;;;;;;;4.10;2.37;;;;;;;4.39;67.39;98352.91;5015193;28;20209;-71
2022/04/18 02:54:54;;;;;;;2.53;2.30;;;;;;;4.43;68.47;98342.88;5015483;28;20217;-70
2022/04/18 02:57:21;;;;;;;3.50;2.30;;;;;;;4.47;67.98;98331.81;5015302;28;20234;-71
2022/04/18 02:59:47;;;;;;;2.53;2.20;;;;;;;4.46;68.33;98345.16;5015400;28;20211;-71
2022/04/18 03:02:13;;;;;;;3.50;2.03;;;;;;;4.73;65.53;98339.38;5015281;28;20214;-71
2022/04/18 03:04:40;;;;;;;4.43;2.27;;;;;;;4.69;67.49;98344.19;5014932;28;20209;-71
2022/04/18 03:07:06;;;;;;;4.13;2.47;;;;;;;4.83;65.78;98340.78;5015148;28;20230;-70
2022/04/18 03:09:33;;;;;;;3.93;2.83;;;;;;;4.73;65.97;98339.38;5015165;28;20206;-70
2022/04/18 03:12:02;;;;;;;2.40;2.20;;;;;;;4.64;66.21;98337.81;5015029;28;20294;-71
2022/04/18 03:14:28;;;;;;;3.17;2.23;;;;;;;4.83;65.05;98335.53;5014816;28;20348;-70
2022/04/18 03:16:55;;;;;;;3.50;2.57;;;;;;;4.58;66.23;98322.72;5014768;28;20234;-70
2022/04/18 03:19:21;;;;;;;3.73;2.43;;;;;;;4.41;67.12;98329.06;5015093;28;20206;-71
2022/04/18 03:21:48;;;;;;;2.40;2.10;;;;;;;4.34;68.90;98328.13;5015209;28;20210;-70
2022/04/18 03:24:15;;;;;;;4.33;2.53;;;;;;;4.34;68.41;98317.59;5014852;28;20230;-71
2022/04/18 03:26:41;;;;;;;4.83;2.50;;;;;;;4.28;69.40;98323.53;5014280;28;20203;-71
2022/04/18 03:29:08;;;;;;;2.77;2.33;;;;;;;4.31;69.36;98328.47;5014660;28;20285;-71
2022/04/18 03:31:34;;;;;;;3.00;2.70;;;;;;;4.32;69.18;98323.03;5014799;28;20211;-71
2022/04/18 03:34:00;;;;;;;4.30;2.87;;;;;;;4.28;69.10;98328.81;5014745;28;20218;-71
2022/04/18 03:41:55;;;;;;;2.63;2.30;;;;;;;3.96;70.81;98319.28;5014370;28;20254;-71
2022/04/18 03:44:21;;;;;;;3.17;2.40;;;;;;;3.93;70.34;98318.81;5012952;28;20261;-71
2022/04/18 03:46:48;;;;;;;3.43;2.50;;;;;;;3.95;70.32;98315.00;5014086;28;20260;-71
2022/04/18 03:49:15;;;;;;;2.87;2.57;;;;;;;3.91;70.28;98318.13;5014525;28;20257;-71
2022/04/18 03:51:43;;;;;;;3.73;2.40;;;;;;;4.00;70.16;98306.59;5014100;28;20203;-71
2022/04/18 03:54:10;;;;;;;4.17;2.60;;;;;;;3.96;70.21;98308.75;5014149;28;20226;-71
2022/04/18 03:56:36;;;;;;;3.03;2.70;;;;;;;4.09;69.85;98313.44;5014008;28;20245;-71
2022/04/18 03:59:02;;;;;;;3.77;2.50;;;;;;;4.00;70.82;98314.47;5014366;28;20214;-71
2022/04/18 04:01:29;;;;;;;3.97;2.57;;;;;;;3.90;70.47;98314.72;5014372;28;20206;-70
2022/04/18 04:03:55;;;;;;;4.30;2.60;;;;;;;3.87;71.03;98319.47;5013770;28;20223;-71
2022/04/18 04:06:22;;;;;;;3.03;2.70;;;;;;;3.74;71.21;98316.56;5014111;28;20257;-70
2022/04/18 04:08:48;;;;;;;3.27;2.53;;;;;;;3.77;71.73;98319.69;5013842;28;20231;-71
2022/04/18 04:11:15;;;;;;;2.80;2.50;;;;;;;3.74;72.24;98303.41;5014199;28;20210;-71
2022/04/18 04:13:41;;;;;;;4.67;2.77;;;;;;;3.78;72.23;98307.34;5014105;28;20273;-70
2022/04/18 04:16:07;;;;;;;4.03;3.00;;;;;;;3.80;72.16;98303.53;5014099;28;20206;-71
2022/04/18 04:18:38;;;;;;;2.87;2.43;;;;;;;3.85;72.88;98311.75;5013855;28;20222;-70
2022/04/18 04:21:06;;;;;;;3.97;2.43;;;;;;;3.91;72.20;98312.88;5014083;28;20220;-71
2022/04/18 04:23:33;;;;;;;3.83;2.70;;;;;;;3.83;72.83;98313.75;5013977;28;20229;-71
2022/04/18 04:26:00;;;;;;;3.47;2.60;;;;;;;3.82;72.92;98306.84;5013950;28;20206;-70
2022/04/18 04:28:26;;;;;;;3.63;2.50;;;;;;;3.82;73.41;98306.00;5012856;28;20282;-70
2022/04/18 04:30:57;;;;;;;4.07;3.00;;;;;;;3.79;74.37;98303.75;5014165;28;20213;-70
2022/04/18 04:33:25;;;;;;;3.13;2.83;;;;;;;3.77;74.17;98303.91;5013682;28;20218;-70
2022/04/18 04:35:51;;;;;;;5.07;3.00;;;;;;;3.83;74.11;98299.75;5013991;28;20202;-70
2022/04/18 04:38:18;;;;;;;4.97;2.70;;;;;;;3.74;74.86;98298.16;5013649;28;20230;-71
2022/04/18 04:40:45;;;;;;;3.77;2.97;;;;;;;3.62;73.89;98292.44;5013575;28;20546;-71
2022/04/18 04:43:11;;;;;;;3.57;2.67;;;;;;;3.68;74.39;98288.31;5013982;28;20233;-71
2022/04/18 04:45:38;;;;;;;4.87;2.70;;;;;;;3.74;73.88;98298.16;5013814;28;20207;-71
2022/04/18 04:48:05;;;;;;;4.57;2.30;;;;;;;3.72;73.27;98292.25;5013770;28;20226;-71
2022/04/18 04:50:32;;;;;;;4.93;2.70;;;;;;;3.78;74.05;98289.75;5013754;28;20206;-71
2022/04/18 04:53:00;;;;;;;3.60;2.37;;;;;;;3.86;74.11;98288.91;5013498;28;20665;-71
2022/04/18 04:55:27;;;;;;;4.17;2.80;;;;;;;4.04;73.22;98292.09;5013520;28;20206;-71
2022/04/18 04:57:53;;;;;;;3.30;2.80;;;;;;;4.04;72.78;98289.47;5013980;28;20233;-71
2022/04/18 05:00:20;;;;;;;3.07;2.77;;;;;;;4.19;72.50;98293.00;5013689;28;20206;-71
2022/04/18 05:02:46;;;;;;;4.80;2.80;;;;;;;4.16;73.43;98296.81;5013535;28;20206;-71
2022/04/18 05:05:13;;;;;;;4.60;2.90;;;;;;;4.27;72.47;98288.53;5013286;28;20692;-71
2022/04/18 05:07:39;;;;;;;3.43;2.80;;;;;;;4.38;71.72;98284.69;5012387;28;20604;-71
2022/04/18 05:10:06;;;;;;;3.90;2.93;;;;;;;4.44;71.82;98289.25;5013507;28;20229;-71
2022/04/18 05:12:32;;;;;;;3.30;3.00;;;;;;;4.53;72.26;98286.38;5013297;28;20202;-71
2022/04/18 05:15:05;;;;;;;3.50;2.70;;;;;;;4.56;71.80;98286.03;5013433;28;20206;-71
2022/04/18 05:17:32;;;;;;;6.20;3.10;;;;;;;4.74;71.58;98288.38;5014931;28;20234;-71
2022/04/18 05:19:59;;;;;;;3.00;2.70;;;;;;;4.80;71.29;98290.28;5016249;28;20206;-71
2022/04/18 05:22:26;;;;;;;4.13;2.80;;;;;;;4.85;71.38;98296.69;5017058;28;20207;-71
2022/04/18 05:24:55;;;;;;;3.43;2.80;;;;;;;4.93;71.79;98299.22;5017614;28;20227;-71
2022/04/18 05:27:21;;;;;;;3.77;2.67;;;;;;;4.99;70.81;98295.06;5017409;28;20332;-71
2022/04/18 05:29:48;;;;;;;5.57;3.10;;;;;;;5.13;69.78;98296.91;5017341;28;20578;-71
2022/04/18 05:32:14;;;;;;;3.83;2.60;;;;;;;5.27;70.14;98302.22;5017295;28;20576;-71
2022/04/18 05:34:41;;;;;;;4.80;2.80;;;;;;;5.30;68.06;98304.47;5017163;28;20210;-71
2022/04/18 05:37:07;;;;;;;3.20;2.70;;;;;;;5.41;68.27;98306.69;5017137;28;20233;-72
2022/04/18 05:39:35;;;;;;;4.23;2.80;;;;;;;5.53;67.29;98307.06;5017342;28;20215;-71
2022/04/18 05:42:01;;;;;;;4.27;2.87;;;;;;;5.77;65.15;98312.06;5016861;28;20211;-71
2022/04/18 05:44:28;;;;;;;4.63;2.73;;;;;;;5.81;64.80;98308.91;5016912;28;20234;-71
2022/04/18 05:46:54;;;;;;;3.27;2.90;;;;;;;5.78;66.01;98318.97;5016901;28;20252;-71
2022/04/18 05:49:20;;;;;;;3.10;2.73;;;;;;;5.77;66.01;98315.53;5016690;28;20214;-71
2022/04/18 05:51:47;;;;;;;3.50;2.93;;;;;;;5.82;66.08;98318.47;5017133;28;20220;-71
2022/04/18 05:54:13;;;;;;;3.87;3.00;;;;;;;5.90;64.89;98321.03;5016864;28;20209;-71
2022/04/18 05:56:40;;;;;;;3.80;3.00;;;;;;;6.00;65.18;98310.16;5016488;28;20203;-71
2022/04/18 05:59:06;;;;;;;5.27;3.17;;;;;;;5.96;65.08;98308.88;5016825;28;20553;-71
2022/04/18 06:01:33;;;;;;;5.40;3.07;;;;;;;6.06;65.39;98320.00;5016717;28;20301;-71
2022/04/18 06:03:59;;;;;;;3.60;3.30;;;;;;;5.87;65.92;98310.00;5016695;28;20223;-71
2022/04/18 06:06:26;;;;;;;3.40;3.10;;;;;;;5.99;65.79;98308.53;5016515;28;20212;-71
2022/04/18 06:08:52;;;;;;;5.07;3.40;;;;;;;5.97;65.39;98305.28;5016188;28;20226;-71
2022/04/18 06:11:18;;;;;;;3.70;3.10;;;;;;;6.05;66.16;98308.63;5016210;28;20217;-70
2022/04/18 06:13:45;;;;;;;4.10;3.30;;;;;;;6.20;65.87;98308.59;5016312;28;20210;-70
2022/04/18 06:16:11;;;;;;;3.40;3.10;;;;;;;6.39;65.01;98313.28;5016405;28;20206;-70
2022/04/18 06:18:37;;;;;;;3.50;3.20;;;;;;;6.38;64.54;98314.28;5016500;28;20231;-71
2022/04/18 06:21:06;;;;;;;3.50;3.00;;;;;;;6.43;65.29;98304.00;5016370;28;20210;-70
2022/04/18 06:23:32;;;;;;;4.73;3.07;;;;;;;6.46;62.82;98295.66;5016226;28;20229;-71
2022/04/18 06:25:59;;;;;;;4.57;3.07;;;;;;;6.61;63.24;98285.91;5016338;28;20206;-70
2022/04/18 06:28:25;;;;;;;5.03;2.90;;;;;;;6.69;63.29;98291.88;5015506;28;20246;-70
2022/04/18 06:30:51;;;;;;;3.63;3.20;;;;;;;6.69;62.50;98294.50;5015862;28;20712;-70
2022/04/18 06:33:18;;;;;;;4.30;2.97;;;;;;;6.66;61.63;98294.06;5015737;28;20688;-70
2022/04/18 06:35:46;;;;;;;3.57;3.10;;;;;;;6.81;60.78;98298.28;5015826;28;20664;-71
2022/04/18 06:38:13;;;;;;;4.43;3.20;;;;;;;6.90;58.23;98288.41;5015943;28;20232;-70
2022/04/18 06:40:39;;;;;;;3.53;3.07;;;;;;;7.00;59.17;98291.53;5015679;28;20213;-71
2022/04/18 06:43:06;;;;;;;4.20;3.07;;;;;;;7.10;56.39;98289.41;5015659;28;20595;-70
2022/04/18 06:45:32;;;;;;;4.07;2.63;;;;;;;7.02;56.99;98294.81;5015439;28;20584;-70
2022/04/18 06:47:58;;;;;;;4.23;3.03;;;;;;;7.32;58.59;98286.50;5015731;28;20309;-70
2022/04/18 06:50:25;;;;;;;3.83;3.00;;;;;;;7.51;55.80;98285.00;5015794;28;20214;-71
2022/04/18 06:52:51;;;;;;;3.70;3.33;;;;;;;7.71;54.62;98284.13;5015324;28;20210;-71
2022/04/18 06:55:18;;;;;;;3.07;2.77;;;;;;;7.84;54.31;98288.66;5015492;28;20202;-71
2022/04/18 06:57:43;;;;;;;4.07;3.27;;;;;;;8.06;53.06;98283.06;5015608;28;20231;-71
2022/04/18 07:00:10;;;;;;;3.77;3.20;;;;;;;8.07;53.49;98291.81;5015255;28;20211;-70
2022/04/18 07:02:36;;;;;;;3.93;3.00;;;;;;;7.90;54.10;98288.69;5015263;28;20214;-70
2022/04/18 07:05:03;;;;;;;3.63;2.73;;;;;;;7.67;52.34;98285.53;5015402;28;20322;-70
2022/04/18 07:07:29;;;;;;;4.20;2.80;;;;;;;7.83;52.58;98290.47;5015306;28;20233;-70
2022/04/18 07:09:55;;;;;;;4.23;2.97;;;;;;;8.02;52.52;98279.19;5014945;28;20218;-70
2022/04/18 07:12:23;;;;;;;3.40;2.80;;;;;;;8.16;53.40;98274.75;5015334;28;20300;-71
2022/04/18 07:14:50;;;;;;;3.90;2.90;;;;;;;8.42;52.60;98278.31;5015316;28;20261;-70
2022/04/18 07:17:17;;;;;;;4.40;3.10;;;;;;;8.78;50.35;98288.59;5015464;28;20226;-71
2022/04/18 07:19:43;;;;;;;3.40;3.00;;;;;;;8.61;51.15;98282.06;5014845;28;20210;-70
2022/04/18 07:22:09;;;;;;;3.53;3.17;;;;;;;8.77;51.81;98293.09;5015055;28;20207;-70
2022/04/18 07:24:36;;;;;;;4.10;3.07;;;;;;;8.81;50.33;98291.66;5014943;28;20223;-70
2022/04/18 07:27:02;;;;;;;4.17;3.20;;;;;;;8.74;51.17;98295.31;5014897;28;20239;-71
2022/04/18 07:29:29;;;;;;;4.23;3.50;;;;;;;8.94;49.38;98286.38;5015065;28;20214;-71
2022/04/18 07:31:55;;;;;;;4.10;3.37;;;;;;;8.88;50.84;98284.53;5015097;28;20210;-70
2022/04/18 07:34:22;;;;;;;3.70;2.90;;;;;;;8.73;51.37;98285.75;5015028;28;20206;-71
2022/04/18 07:36:48;;;;;;;4.77;3.13;;;;;;;9.13;51.94;98282.91;5014859;28;20226;-71
2022/04/18 07:39:15;;;;;;;3.17;2.83;;;;;;;9.16;49.68;98293.13;5013984;28;20206;-71
2022/04/18 07:41:42;;;;;;;5.43;3.20;;;;;;;9.52;50.53;98287.38;5014664;28;20211;-70
2022/04/18 07:44:08;;;;;;;4.10;3.47;;;;;;;9.38;49.47;98285.75;5014454;28;20234;-70
2022/04/18 07:46:35;;;;;;;3.97;2.97;;;;;;;9.56;48.11;98289.41;5014291;28;20665;-70
2022/04/18 07:49:01;;;;;;;5.20;3.50;;;;;;;9.56;49.79;98289.41;5014296;28;20688;-71
2022/04/18 07:51:35;;;;;;;4.83;3.30;;;;;;;9.89;50.76;98286.69;5014671;28;20569;-70
2022/04/18 07:54:05;;;;;;;4.17;2.90;;;;;;;9.98;47.68;98288.09;5014592;28;20190;-70
2022/04/18 07:56:32;;;;;;;5.10;2.97;;;;;;;10.12;50.03;98289.69;5014766;28;20210;-70
2022/04/18 07:58:58;;;;;;;3.53;3.20;;;;;;;10.09;50.29;98290.13;5014314;28;20215;-70
2022/04/18 08:01:25;;;;;;;3.63;3.10;;;;;;;10.20;49.04;98289.47;5014570;28;20217;-70
2022/04/18 08:03:51;;;;;;;3.60;2.93;;;;;;;10.17;48.01;98293.38;5014328;28;20246;-70
2022/04/18 08:06:18;;;;;;;3.93;2.93;;;;;;;10.26;47.86;98289.44;5014300;28;20709;-70
2022/04/18 08:08:45;;;;;;;3.00;2.67;;;;;;;10.32;47.07;98295.75;5014202;28;20231;-70
2022/04/18 08:11:14;;;;;;;3.40;2.73;;;;;;;10.46;47.73;98297.31;5014224;28;20210;-71
2022/04/18 08:13:42;;;;;;;3.20;2.90;;;;;;;10.18;45.75;98299.50;5013986;28;20672;-70
2022/04/18 08:16:08;;;;;;;5.37;2.77;;;;;;;10.26;46.17;98296.59;5014224;28;20211;-70
2022/04/18 08:18:38;;;;;;;3.20;2.83;;;;;;;10.54;45.92;98291.78;5014139;28;20222;-70
2022/04/18 08:21:05;;;;;;;3.40;2.97;;;;;;;10.51;45.63;98298.31;5013763;28;20222;-70
2022/04/18 08:23:33;;;;;;;3.00;2.70;;;;;;;10.68;46.82;98288.81;5013705;28;20214;-70
2022/04/18 08:26:00;;;;;;;3.53;2.93;;;;;;;10.82;44.31;98292.22;5014271;28;20206;-70
2022/04/18 08:28:27;;;;;;;3.47;3.17;;;;;;;10.90;47.56;98290.09;5013850;28;20238;-70
2022/04/18 08:30:55;;;;;;;4.03;2.53;;;;;;;10.72;45.83;98295.31;5013957;28;20292;-70
2022/04/18 08:33:22;;;;;;;3.70;3.23;;;;;;;10.55;45.97;98293.41;5013587;28;20677;-71
2022/04/18 08:35:49;;;;;;;3.93;3.03;;;;;;;10.75;46.28;98291.44;5013861;28;20206;-70
2022/04/18 08:38:15;;;;;;;4.40;3.07;;;;;;;10.72;47.68;98292.66;5013349;28;20237;-71
2022/04/18 08:40:49;;;;;;;3.23;2.70;;;;;;;11.10;45.24;98289.97;5013442;28;20301;-70
2022/04/18 08:43:15;;;;;;;4.37;2.90;;;;;;;11.13;44.81;98286.88;5013805;28;20279;-70
2022/04/18 08:45:41;;;;;;;3.23;2.93;;;;;;;10.80;44.87;98283.63;5013628;28;20227;-71
2022/04/18 08:53:38;;;;;;;5.67;3.33;;;;;;;11.65;43.28;98288.28;5014117;28;20182;-70
2022/04/18 08:56:04;;;;;;;3.30;3.00;;;;;;;11.52;43.85;98281.19;5013359;28;20241;-71
2022/04/18 08:58:31;;;;;;;4.60;2.70;;;;;;;11.48;44.85;98281.88;5013281;28;20222;-70
2022/04/18 09:00:59;;;;;;;3.60;3.00;;;;;;;11.67;42.55;98287.00;5012904;28;20567;-70
2022/04/18 09:03:26;;;;;;;4.73;3.20;;;;;;;11.40;42.19;98279.47;5012965;28;20229;-70
2022/04/18 09:06:12;;;;;;;4.10;3.30;;;;;;;11.27;42.23;98275.09;5012883;28;20227;-70
2022/04/18 09:08:51;;;;;;;4.83;3.23;;;;;;;11.73;42.26;98272.00;5013289;28;20234;-71
2022/04/18 09:11:27;;;;;;;4.63;3.03;;;;;;;12.07;42.15;98272.25;5013047;28;20281;-71
2022/04/18 09:14:07;;;;;;;3.03;2.73;;;;;;;12.12;40.45;98268.91;5013461;28;20252;-70
2022/04/18 09:16:34;;;;;;;3.53;2.30;;;;;;;12.43;38.42;98255.41;5013339;28;20277;-71
2022/04/18 09:19:18;;;;;;;2.67;2.27;;;;;;;12.76;37.10;98253.91;5013117;28;20242;-71
2022/04/18 09:21:57;;;;;;;2.60;2.10;;;;;;;12.98;38.51;98251.53;5013791;28;20209;-70
2022/04/18 09:24:34;;;;;;;4.47;2.47;;;;;;;13.13;36.62;98258.06;5013143;28;20298;-71
2022/04/18 09:27:06;;;;;;;3.17;2.40;;;;;;;13.06;35.68;98252.00;5013245;28;20333;-71
2022/04/18 09:29:38;;;;;;;3.13;2.33;;;;;;;13.55;38.72;98251.59;5013459;28;20606;-71
2022/04/18 09:32:12;;;;;;;3.90;2.33;;;;;;;13.60;35.94;98248.22;5013414;28;20213;-71
2022/04/18 09:34:40;;;;;;;3.50;2.70;;;;;;;13.76;36.66;98247.50;5014170;28;20189;-71
2022/04/18 09:37:10;;;;;;;3.97;2.63;;;;;;;13.90;36.33;98247.03;5013048;28;20228;-71
2022/04/18 09:39:37;;;;;;;2.93;2.50;;;;;;;13.79;35.23;98242.50;5013085;28;20304;-70
2022/04/18 09:42:11;;;;;;;3.00;2.57;;;;;;;13.77;35.81;98239.25;5012886;28;20213;-70
2022/04/18 09:44:38;;;;;;;2.80;2.60;;;;;;;14.12;36.53;98242.69;5012790;28;20575;-70
2022/04/18 09:47:05;;;;;;;3.60;2.80;;;;;;;14.03;35.15;98241.44;5012794;28;20594;-71
2022/04/18 09:49:39;;;;;;;3.87;2.57;;;;;;;13.96;35.19;98234.56;5013099;28;20206;-71
2022/04/18 09:52:11;;;;;;;2.60;2.40;;;;;;;14.17;35.53;98229.41;5012923;28;20681;-71
2022/04/18 09:54:58;;;;;;;3.37;2.93;;;;;;;14.02;34.79;98230.97;5012979;28;20286;-71
2022/04/18 09:57:29;;;;;;;5.57;2.70;;;;;;;14.28;35.82;98233.94;5013053;28;20558;-71
2022/04/18 09:59:57;;;;;;;3.57;2.70;;;;;;;14.57;37.02;98235.56;5012903;28;20661;-71
2022/04/18 10:02:25;;;;;;;3.70;2.77;;;;;;;14.49;36.04;98222.59;5013118;28;20207;-72
2022/04/18 10:04:53;;;;;;;3.60;2.90;;;;;;;14.58;34.63;98228.34;5016500;28;20225;-71
2022/04/18 10:07:20;;;;;;;4.10;2.73;;;;;;;14.69;34.45;98227.47;5015832;28;20670;-71
2022/04/18 10:09:46;;;;;;;4.23;2.57;;;;;;;14.49;36.17;98225.25;5016479;28;20210;-71
2022/04/18 10:12:14;;;;;;;3.20;2.73;;;;;;;14.65;36.72;98213.75;5016257;28;20206;-71
2022/04/18 10:14:42;;;;;;;3.70;2.67;;;;;;;14.69;36.69;98216.75;5016196;28;20234;-71
2022/04/18 10:17:11;;;;;;;3.17;2.70;;;;;;;14.89;35.13;98214.47;5016018;28;20236;-71
2022/04/18 10:19:56;;;;;;;2.80;2.50;;;;;;;14.92;35.20;98219.34;5015901;28;20210;-71
2022/04/18 10:22:33;;;;;;;2.80;2.60;;;;;;;15.08;35.25;98208.63;5016127;28;20199;-72
2022/04/18 10:25:28;;;;;;;3.83;2.73;;;;;;;13.91;35.46;98216.59;5015927;28;20214;-71
2022/04/18 10:28:04;;;;;;;3.03;2.70;;;;;;;14.34;35.75;98200.88;5015575;28;20238;-71
2022/04/18 10:30:36;;;;;;;3.63;2.50;;;;;;;14.82;36.60;98190.53;5016356;28;20209;-71
2022/04/18 10:33:05;;;;;;;3.03;2.60;;;;;;;15.22;35.01;98201.88;5016062;28;20210;-71
2022/04/18 10:35:31;;;;;;;3.03;2.73;;;;;;;15.25;35.21;98201.38;5015946;28;20206;-71
2022/04/18 10:37:58;;;;;;;3.20;2.90;;;;;;;15.24;33.85;98199.75;5015804;28;20230;-71
2022/04/18 10:40:25;;;;;;;3.60;2.90;;;;;;;15.32;33.51;98194.00;5015686;28;20211;-71
2022/04/18 10:42:51;;;;;;;2.63;2.43;;;;;;;15.24;34.13;98185.56;5016087;28;20207;-71
2022/04/18 10:45:17;;;;;;;2.90;2.43;;;;;;;15.20;34.70;98181.75;5015361;28;20265;-71
2022/04/18 10:47:56;;;;;;;3.03;2.70;;;;;;;15.33;35.72;98192.94;5015363;28;20237;-71
2022/04/18 10:50:28;;;;;;;3.20;2.57;;;;;;;15.25;32.91;98182.63;5015355;28;20704;-71
2022/04/18 10:53:19;;;;;;;2.53;2.10;;;;;;;15.46;34.48;98192.63;5015497;28;20206;-71
2022/04/18 10:55:51;;;;;;;2.20;2.10;;;;;;;15.40;34.06;98177.53;5015046;28;20278;-71
2022/04/18 10:58:23;;;;;;;3.17;2.87;;;;;;;15.00;33.69;98182.25;5015286;28;20223;-71
2022/04/18 11:00:51;;;;;;;4.03;2.50;;;;;;;15.43;34.60;98187.75;5015196;28;20223;-71
2022/04/18 11:03:36;;;;;;;3.43;2.50;;;;;;;15.55;34.37;98183.09;5015262;28;20207;-71
2022/04/18 11:06:23;;;;;;;2.73;2.10;;;;;;;15.39;33.19;98175.94;5014976;28;20230;-71
2022/04/18 11:09:01;;;;;;;3.23;2.53;;;;;;;15.41;33.16;98173.81;5004522;28;20233;-71
2022/04/18 11:11:35;;;;;;;3.33;2.53;;;;;;;15.06;32.90;98172.44;5015138;28;20213;-71
2022/04/18 11:14:03;;;;;;;2.73;2.40;;;;;;;14.97;34.29;98165.88;5014861;28;20702;-70
2022/04/18 11:16:30;;;;;;;3.67;2.30;;;;;;;15.02;34.34;98164.06;5015005;28;20206;-71
2022/04/18 11:19:17;;;;;;;3.90;2.70;;;;;;;15.09;34.71;98164.72;5014701;28;20541;-72
2022/04/18 11:21:56;;;;;;;2.73;2.50;;;;;;;15.17;35.24;98160.81;5014862;28;20194;-71
2022/04/18 11:24:35;;;;;;;3.13;2.37;;;;;;;15.34;34.09;98157.06;5014276;28;20221;-71
2022/04/18 11:27:06;;;;;;;3.30;2.67;;;;;;;15.15;33.36;98147.66;5014340;28;20233;-72
2022/04/18 11:29:33;;;;;;;3.60;2.70;;;;;;;14.96;34.14;98153.53;5014107;28;20257;-71
2022/04/18 11:31:59;;;;;;;2.43;2.13;;;;;;;15.28;34.41;98141.97;5014704;28;20203;-71
2022/04/18 11:34:28;;;;;;;2.90;2.70;;;;;;;15.18;34.57;98136.47;5014615;28;20213;-71
2022/04/18 11:36:57;;;;;;;4.17;2.77;;;;;;;15.57;35.81;98138.13;5014462;28;20317;-71
2022/04/18 11:39:24;;;;;;;2.70;2.33;;;;;;;15.90;33.02;98145.22;5014658;28;20214;-71
2022/04/18 11:42:06;;;;;;;3.23;2.93;;;;;;;15.57;34.06;98145.34;5014479;28;20573;-71
2022/04/18 11:44:40;;;;;;;3.37;2.90;;;;;;;15.51;33.72;98139.09;5014243;28;20206;-71
2022/04/18 11:47:10;;;;;;;3.30;2.70;;;;;;;15.37;34.02;98137.06;5014353;28;20277;-71
2022/04/18 11:49:39;;;;;;;3.97;2.93;;;;;;;15.39;33.72;98126.88;5014434;28;20198;-71
2022/04/18 11:52:06;;;;;;;3.50;2.60;;;;;;;15.39;35.37;98129.56;5013762;28;20562;-71
2022/04/18 11:54:33;;;;;;;4.37;2.83;;;;;;;15.42;33.69;98131.75;5014438;28;20207;-71
2022/04/18 11:57:03;;;;;;;3.20;2.90;;;;;;;15.47;35.03;98116.53;5013904;28;20701;-71